Newdale, Canada
Current Conditions -  °F | °C
As of 10:00 AM on Monday 24 Nov 2014 (Local Time) from CYBR Reporting Station
Few Clouds Few Clouds  
Wind Chill: -6°   Ceiling: Unl
Heat Index:   Visibility: 15mi
Dew Point: -2°   Wind: 8mph
Humidity: 67%   Direction: 310°NW
Pressure: 29.91"   Gusts: NA
Location:  50.35°N, 100.2°W
Report Text: CYBR 241600Z 31007KT 15SM FEW250 M14/M19 A2991 RMK CI1 SLP167
Loading
Personal Weather Stations






























Interactive Weather Map New forecast layout! Learn more

10-Day Weather Forecast

Advertisements
Track Severe Weather on mobile